Time;durP1;ratioP1;P1;durP2;ratioP2;P2;SDS_P1;SDS_P2;PMS_P1;PMS_P2;Temp;Humidity;BMP_temperature;BMP_pressure;BME280_temperature;BME280_humidity;BME280_pressure;Samples;Min_cycle;Max_cycle;Signal;HPM_P1;HPM_P2
2023/09/14 00:00:35;;;;;;;;;;;;;;;21.97;61.31;97019.78;597778;237;66599;-66
2023/09/14 00:03:02;;;;;;;;;;;;;;;21.97;61.27;97022.45;597798;237;65011;-65
2023/09/14 00:05:30;;;;;;;;;;;;;;;21.97;61.33;97022.45;597789;237;64880;-65
2023/09/14 00:07:58;;;;;;;;;;;;;;;21.97;61.33;97022.45;597815;237;66741;-66
2023/09/14 00:10:25;;;;;;;;;;;;;;;21.98;61.33;97020.58;597785;237;64957;-66
2023/09/14 00:12:53;;;;;;;;;;;;;;;21.97;61.28;97021.66;597784;237;65458;-66
2023/09/14 00:15:20;;;;;;;;;;;;;;;21.97;61.35;97021.66;597827;237;66777;-66
2023/09/14 00:17:48;;;;;;;;;;;;;;;21.97;61.33;97014.43;597784;237;65485;-65
2023/09/14 00:20:23;;;;;;;;;;;;;;;21.98;61.24;97017.91;597818;237;66700;-66
2023/09/14 00:22:51;;;;;;;;;;;;;;;21.97;61.35;97018.98;597783;237;64712;-67
2023/09/14 00:25:18;;;;;;;;;;;;;;;21.97;61.34;97021.66;597790;237;62752;-67
2023/09/14 00:27:46;;;;;;;;;;;;;;;21.98;61.34;97024.05;597790;237;64595;-66
2023/09/14 00:30:14;;;;;;;;;;;;;;;21.97;61.34;97017.11;597772;237;66822;-66
2023/09/14 00:32:42;;;;;;;;;;;;;;;21.97;61.32;97010.96;594373;237;62646;-66
2023/09/14 00:35:10;;;;;;;;;;;;;;;21.97;61.33;97010.96;594015;239;66868;-67
2023/09/14 00:37:38;;;;;;;;;;;;;;;21.97;61.32;97010.96;593982;239;66830;-67
2023/09/14 00:40:10;;;;;;;;;;;;;;;21.97;61.35;97011.76;593994;239;66103;-67
2023/09/14 00:42:43;;;;;;;;;;;;;;;21.97;61.26;97011.76;594050;239;64755;-66
2023/09/14 00:45:15;;;;;;;;;;;;;;;21.95;61.29;97006.67;594038;239;64913;-67
2023/09/14 00:47:47;;;;;;;;;;;;;;;21.96;61.28;97012.81;594011;239;65114;-67
2023/09/14 00:50:16;;;;;;;;;;;;;;;21.96;61.29;97015.48;594005;239;66802;-67
2023/09/14 00:52:46;;;;;;;;;;;;;;;21.97;61.34;97013.64;593943;239;65224;-66
2023/09/14 00:55:14;;;;;;;;;;;;;;;21.96;61.35;97007.46;593677;238;62687;-67
2023/09/14 00:57:42;;;;;;;;;;;;;;;21.97;61.37;97000.26;594003;239;67170;-67
2023/09/14 01:00:11;;;;;;;;;;;;;;;21.97;61.33;97000.26;594011;239;66787;-66
2023/09/14 01:02:40;;;;;;;;;;;;;;;21.95;61.33;97003.99;593921;239;63098;-67
2023/09/14 01:05:08;;;;;;;;;;;;;;;21.95;61.32;96995.97;593976;239;64469;-67
2023/09/14 01:07:36;;;;;;;;;;;;;;;21.96;61.33;97002.11;594044;239;64366;-66
2023/09/14 01:10:07;;;;;;;;;;;;;;;21.96;61.32;96996.76;594035;239;64931;-66
2023/09/14 01:12:34;;;;;;;;;;;;;;;21.97;61.26;97000.26;594005;239;66755;-67
2023/09/14 01:15:20;;;;;;;;;;;;;;;21.95;61.36;96993.29;593988;239;66733;-65
2023/09/14 01:17:50;;;;;;;;;;;;;;;21.95;61.28;96998.64;593972;239;63906;-65
2023/09/14 01:20:37;;;;;;;;;;;;;;;21.97;61.26;97000.26;587632;236;67088;-65
2023/09/14 01:23:12;;;;;;;;;;;;;;;21.95;61.26;96998.64;593856;238;66852;-64
2023/09/14 01:25:43;;;;;;;;;;;;;;;21.96;61.34;96999.44;583144;238;66253;-64
2023/09/14 01:28:13;;;;;;;;;;;;;;;21.94;61.25;97007.75;593967;237;66896;-66
2023/09/14 01:30:44;;;;;;;;;;;;;;;21.94;61.29;96999.73;593953;237;67525;-65
2023/09/14 01:33:14;;;;;;;;;;;;;;;21.95;61.24;96997.84;594001;239;65300;-65
2023/09/14 01:35:43;;;;;;;;;;;;;;;21.94;61.27;96997.05;594004;239;64780;-65
2023/09/14 01:38:12;;;;;;;;;;;;;;;21.95;61.29;96990.61;593985;238;65562;-65
2023/09/14 01:40:41;;;;;;;;;;;;;;;21.95;61.29;97005.87;594022;239;65027;-65
2023/09/14 01:43:09;;;;;;;;;;;;;;;21.95;61.27;97003.99;593978;239;66762;-65
2023/09/14 01:45:37;;;;;;;;;;;;;;;21.94;61.30;97005.08;594029;239;64639;-65
2023/09/14 01:48:05;;;;;;;;;;;;;;;21.95;61.24;97003.99;594037;239;63009;-65
2023/09/14 01:50:32;;;;;;;;;;;;;;;21.95;61.36;97008.55;594009;239;64792;-65
2023/09/14 01:53:00;;;;;;;;;;;;;;;21.94;61.28;96999.73;594065;239;67538;-65
2023/09/14 01:55:27;;;;;;;;;;;;;;;21.95;61.19;97003.20;594046;239;63097;-65
2023/09/14 01:57:55;;;;;;;;;;;;;;;21.95;61.25;96995.17;594019;239;66937;-65
2023/09/14 02:00:25;;;;;;;;;;;;;;;21.94;61.28;96994.38;594039;239;66474;-65
2023/09/14 02:02:52;;;;;;;;;;;;;;;21.94;61.23;96999.73;593984;239;65239;-65
2023/09/14 02:05:20;;;;;;;;;;;;;;;21.94;61.25;97002.41;594058;239;64428;-65
2023/09/14 02:07:48;;;;;;;;;;;;;;;21.94;61.28;97002.41;593992;239;67257;-65
2023/09/14 02:10:17;;;;;;;;;;;;;;;21.95;61.27;97008.55;594012;239;65215;-65
2023/09/14 02:12:45;;;;;;;;;;;;;;;21.94;61.30;97007.75;594026;239;66841;-65
2023/09/14 02:15:12;;;;;;;;;;;;;;;21.95;61.27;97006.67;594039;239;66772;-65
2023/09/14 02:17:40;;;;;;;;;;;;;;;21.95;61.24;97008.55;594057;239;62859;-65
2023/09/14 02:20:08;;;;;;;;;;;;;;;21.94;61.30;97002.41;594004;239;64261;-65
2023/09/14 02:22:37;;;;;;;;;;;;;;;21.94;61.26;97005.08;594015;239;66883;-65
2023/09/14 02:25:05;;;;;;;;;;;;;;;21.94;61.31;97002.41;594042;238;65206;-65
2023/09/14 02:27:35;;;;;;;;;;;;;;;21.94;61.22;96999.73;594024;239;64461;-65
2023/09/14 02:30:03;;;;;;;;;;;;;;;21.94;61.29;97001.61;594012;239;66835;-65
2023/09/14 02:32:31;;;;;;;;;;;;;;;21.94;61.30;97006.96;597091;236;63083;-65
2023/09/14 02:34:58;;;;;;;;;;;;;;;21.93;61.23;97006.17;597792;235;67199;-65
2023/09/14 02:37:26;;;;;;;;;;;;;;;21.94;61.30;97005.08;597816;237;66972;-65
2023/09/14 02:39:54;;;;;;;;;;;;;;;21.94;61.23;97006.96;597799;237;63027;-65
2023/09/14 02:42:21;;;;;;;;;;;;;;;21.93;61.26;97008.84;597809;237;67329;-65
2023/09/14 02:44:49;;;;;;;;;;;;;;;21.93;61.28;97006.17;597840;237;66999;-65
2023/09/14 02:47:16;;;;;;;;;;;;;;;21.94;61.31;97013.11;597777;235;64984;-65
2023/09/14 02:49:44;;;;;;;;;;;;;;;21.94;61.27;97009.64;597815;237;67076;-67
2023/09/14 02:52:11;;;;;;;;;;;;;;;21.94;61.31;97009.64;597798;237;64196;-66
2023/09/14 02:54:39;;;;;;;;;;;;;;;21.94;61.30;97017.66;597800;237;65557;-66
2023/09/14 02:57:07;;;;;;;;;;;;;;;21.94;61.28;97009.64;597806;237;67533;-66
2023/09/14 02:59:36;;;;;;;;;;;;;;;21.93;61.27;97011.52;597782;237;67270;-67
2023/09/14 03:02:04;;;;;;;;;;;;;;;21.93;61.29;97011.52;597803;237;65151;-66
2023/09/14 03:04:32;;;;;;;;;;;;;;;21.94;61.27;97001.61;597770;237;66863;-66
2023/09/14 03:06:59;;;;;;;;;;;;;;;21.93;61.21;97006.17;597810;237;64730;-66
2023/09/14 03:09:28;;;;;;;;;;;;;;;21.94;61.23;96993.58;597853;237;65648;-66
2023/09/14 03:11:56;;;;;;;;;;;;;;;21.93;61.22;96995.47;597791;237;64382;-66
2023/09/14 03:14:23;;;;;;;;;;;;;;;21.93;61.26;97006.17;597793;237;66521;-65
2023/09/14 03:16:51;;;;;;;;;;;;;;;21.93;61.29;97006.17;597790;236;64504;-65
2023/09/14 03:19:19;;;;;;;;;;;;;;;21.93;61.28;97000.81;597798;237;65404;-65
2023/09/14 03:21:46;;;;;;;;;;;;;;;21.93;61.18;97005.34;597817;237;67066;-66
2023/09/14 03:24:14;;;;;;;;;;;;;;;21.93;61.20;97000.81;597792;237;63022;-66
2023/09/14 03:26:42;;;;;;;;;;;;;;;21.93;61.21;97006.17;597768;237;67471;-66
2023/09/14 03:29:10;;;;;;;;;;;;;;;21.93;61.26;97000.81;597794;237;67779;-66
2023/09/14 03:31:38;;;;;;;;;;;;;;;21.91;61.26;97000.28;597754;237;65762;-66
2023/09/14 03:34:07;;;;;;;;;;;;;;;21.93;61.23;97006.17;597848;237;66982;-66
2023/09/14 03:36:34;;;;;;;;;;;;;;;21.93;61.21;97010.70;597840;237;64365;-66
2023/09/14 03:39:02;;;;;;;;;;;;;;;21.93;61.17;97010.70;597850;237;65341;-66
2023/09/14 03:41:32;;;;;;;;;;;;;;;21.92;61.20;97009.91;597763;237;47707;-66
2023/09/14 03:44:00;;;;;;;;;;;;;;;21.91;61.20;97002.96;597830;237;66957;-66
2023/09/14 03:46:28;;;;;;;;;;;;;;;21.91;61.20;97008.31;597787;237;62658;-66
2023/09/14 03:48:56;;;;;;;;;;;;;;;21.93;61.25;97011.52;597849;237;66912;-66
2023/09/14 03:51:24;;;;;;;;;;;;;;;21.92;61.25;97009.11;597813;237;66468;-66
2023/09/14 03:53:51;;;;;;;;;;;;;;;21.92;61.22;97017.93;597790;237;64789;-67
2023/09/14 03:56:19;;;;;;;;;;;;;;;21.91;61.20;97019.02;597806;237;63986;-66
2023/09/14 03:58:47;;;;;;;;;;;;;;;21.91;61.19;97010.98;597807;237;66580;-66
2023/09/14 04:01:14;;;;;;;;;;;;;;;21.92;61.21;97017.93;597837;237;62630;-66
2023/09/14 04:03:42;;;;;;;;;;;;;;;21.93;61.22;97018.72;597779;237;67292;-66
2023/09/14 04:06:10;;;;;;;;;;;;;;;21.93;61.19;97016.87;597794;237;66798;-66
2023/09/14 04:08:37;;;;;;;;;;;;;;;21.91;61.12;97013.66;597771;237;65115;-66
2023/09/14 04:11:05;;;;;;;;;;;;;;;21.92;61.19;97025.16;597753;237;66810;-67
2023/09/14 04:13:33;;;;;;;;;;;;;;;21.91;61.19;97020.89;597824;237;66681;-66
2023/09/14 04:16:03;;;;;;;;;;;;;;;21.91;61.25;97021.69;597805;237;44029;-66
2023/09/14 04:18:35;;;;;;;;;;;;;;;21.91;61.23;97012.87;597784;237;66969;-66
2023/09/14 04:21:03;;;;;;;;;;;;;;;21.91;61.20;97016.34;597782;237;64829;-67
2023/09/14 04:23:30;;;;;;;;;;;;;;;21.91;61.26;97019.02;597779;237;65177;-68
2023/09/14 04:26:00;;;;;;;;;;;;;;;21.91;61.22;97020.89;597761;237;67620;-67
2023/09/14 04:28:28;;;;;;;;;;;;;;;21.91;61.30;97019.02;597867;237;64989;-66
2023/09/14 04:31:01;;;;;;;;;;;;;;;21.90;61.23;97022.75;597735;237;65299;-68
2023/09/14 04:33:33;;;;;;;;;;;;;;;21.90;61.29;97020.07;597763;237;67754;-67
2023/09/14 04:36:07;;;;;;;;;;;;;;;21.91;61.24;97023.58;597769;237;67044;-66
2023/09/14 04:38:36;;;;;;;;;;;;;;;21.90;61.22;97019.28;597773;237;41988;-65
2023/09/14 04:41:04;;;;;;;;;;;;;;;21.91;61.29;97026.25;597812;237;67609;-65
2023/09/14 04:43:32;;;;;;;;;;;;;;;21.89;61.19;97018.48;597774;237;67080;-65
2023/09/14 04:46:01;;;;;;;;;;;;;;;21.90;61.22;97025.42;597782;237;62886;-65
2023/09/14 04:48:29;;;;;;;;;;;;;;;21.89;61.26;97031.86;597768;237;66966;-66
2023/09/14 04:50:57;;;;;;;;;;;;;;;21.90;61.30;97024.62;597762;237;65588;-66
2023/09/14 04:53:25;;;;;;;;;;;;;;;21.89;61.23;97026.51;597832;237;65023;-65
2023/09/14 04:55:53;;;;;;;;;;;;;;;21.91;61.25;97028.92;597815;237;67158;-66
2023/09/14 04:58:21;;;;;;;;;;;;;;;21.89;61.32;97029.19;597757;237;67386;-65
2023/09/14 05:00:49;;;;;;;;;;;;;;;21.90;61.23;97035.33;597774;237;63027;-66
2023/09/14 05:03:17;;;;;;;;;;;;;;;21.89;61.29;97021.16;597763;237;67728;-66
2023/09/14 05:05:46;;;;;;;;;;;;;;;21.89;61.29;97026.51;597770;237;66343;-65
2023/09/14 05:08:14;;;;;;;;;;;;;;;21.89;61.24;97026.51;597695;235;65149;-66
2023/09/14 05:10:42;;;;;;;;;;;;;;;21.89;61.22;97017.69;597766;237;66859;-66
2023/09/14 05:13:10;;;;;;;;;;;;;;;21.89;61.31;97026.51;597756;237;67371;-67
2023/09/14 05:15:37;;;;;;;;;;;;;;;21.89;61.39;97031.86;597778;237;65178;-66
2023/09/14 05:18:05;;;;;;;;;;;;;;;21.89;61.25;97029.19;597804;237;64280;-66
2023/09/14 05:20:33;;;;;;;;;;;;;;;21.89;61.33;97029.19;597356;237;67273;-67
2023/09/14 05:23:00;;;;;;;;;;;;;;;21.89;61.31;97028.39;597728;235;65947;-67
2023/09/14 05:25:28;;;;;;;;;;;;;;;21.89;61.32;97021.16;597740;237;66586;-67
2023/09/14 05:27:56;;;;;;;;;;;;;;;21.89;61.29;97020.36;597785;237;66815;-67
2023/09/14 05:30:24;;;;;;;;;;;;;;;21.89;61.39;97031.86;597740;237;65120;-67
2023/09/14 05:32:53;;;;;;;;;;;;;;;21.89;61.36;97029.19;597790;237;66930;-67
2023/09/14 05:35:21;;;;;;;;;;;;;;;21.89;61.35;97036.42;597789;237;66707;-67
2023/09/14 05:37:48;;;;;;;;;;;;;;;21.89;61.32;97042.56;597765;237;65710;-67
2023/09/14 05:40:17;;;;;;;;;;;;;;;21.89;61.36;97039.89;597762;237;67660;-67
2023/09/14 05:42:45;;;;;;;;;;;;;;;21.89;61.34;97045.23;597794;237;66472;-67
2023/09/14 05:45:13;;;;;;;;;;;;;;;21.88;61.37;97040.97;597740;235;65801;-67
2023/09/14 05:47:41;;;;;;;;;;;;;;;21.89;61.34;97033.74;597832;237;64258;-67
2023/09/14 05:50:10;;;;;;;;;;;;;;;21.89;61.35;97033.74;597742;237;66746;-67
2023/09/14 05:52:38;;;;;;;;;;;;;;;21.89;61.42;97036.42;597743;237;62896;-66
2023/09/14 05:55:05;;;;;;;;;;;;;;;21.88;61.42;97038.30;597776;237;65516;-67
2023/09/14 05:57:34;;;;;;;;;;;;;;;21.88;61.43;97034.80;597752;237;65628;-67
2023/09/14 06:00:10;;;;;;;;;;;;;;;21.88;61.37;97030.27;597008;235;65406;-67
2023/09/14 06:02:33;;;;;;;;;;;;;;;21.89;61.49;97033.74;596862;237;45489;-66
2023/09/14 06:05:01;;;;;;;;;;;;;;;21.88;61.43;97035.63;597722;237;64352;-68
2023/09/14 06:07:28;;;;;;;;;;;;;;;21.88;61.55;97040.16;596201;237;65113;-67
2023/09/14 06:09:56;;;;;;;;;;;;;;;21.87;61.37;97034.00;597740;237;64284;-68
2023/09/14 06:12:23;;;;;;;;;;;;;;;21.87;61.47;97036.68;597815;237;64382;-67
2023/09/14 06:14:51;;;;;;;;;;;;;;;21.88;61.66;97035.63;597502;237;65201;-68
2023/09/14 06:17:18;;;;;;;;;;;;;;;21.87;63.13;97039.36;597529;237;67046;-68
2023/09/14 06:19:46;;;;;;;;;;;;;;;21.85;61.83;97041.53;597676;237;66670;-65
2023/09/14 06:22:13;;;;;;;;;;;;;;;21.86;61.12;97037.77;597676;237;65072;-65
2023/09/14 06:24:41;;;;;;;;;;;;;;;21.89;64.82;97042.56;597747;237;66873;-65
2023/09/14 06:27:09;;;;;;;;;;;;;;;21.90;65.58;97044.16;597697;237;66821;-65
2023/09/14 06:29:36;;;;;;;;;;;;;;;21.90;64.64;97048.70;597633;237;62708;-66
2023/09/14 06:32:04;;;;;;;;;;;;;;;21.90;65.88;97044.16;596543;237;64545;-65
2023/09/14 06:34:31;;;;;;;;;;;;;;;21.91;66.14;97045.77;595284;238;66753;-66
2023/09/14 06:36:59;;;;;;;;;;;;;;;21.91;65.82;97048.45;594132;236;64953;-66
2023/09/14 06:39:26;;;;;;;;;;;;;;;21.93;65.60;97048.16;593775;239;66753;-65
2023/09/14 06:41:54;;;;;;;;;;;;;;;21.93;65.93;97050.83;593978;238;66388;-65
2023/09/14 06:44:23;;;;;;;;;;;;;;;21.94;66.06;97057.80;594495;238;62508;-65
2023/09/14 06:46:51;;;;;;;;;;;;;;;21.93;65.25;97057.00;594772;238;69656;-65
2023/09/14 06:49:19;;;;;;;;;;;;;;;21.94;65.22;97055.92;595164;238;66820;-69
2023/09/14 06:51:47;;;;;;;;;;;;;;;21.94;62.30;97063.95;594209;236;62818;-65
2023/09/14 06:54:15;;;;;;;;;;;;;;;21.97;59.83;97064.48;594977;238;66932;-68
2023/09/14 06:56:42;;;;;;;;;;;;;;;21.99;59.58;97063.12;595845;238;66450;-70
2023/09/14 06:59:10;;;;;;;;;;;;;;;22.02;59.64;97061.78;595871;238;64910;-71
2023/09/14 07:01:38;;;;;;;;;;;;;;;22.01;59.66;97068.19;595108;238;66759;-71
2023/09/14 07:04:07;;;;;;;;;;;;;;;22.00;59.67;97069.27;594116;238;64888;-71
2023/09/14 07:06:34;;;;;;;;;;;;;;;22.00;59.67;97069.27;593899;239;64955;-70
2023/09/14 07:09:04;;;;;;;;;;;;;;;21.99;59.77;97068.48;594591;238;64229;-70
2023/09/14 07:11:31;;;;;;;;;;;;;;;21.98;59.97;97056.16;595359;238;66717;-64
2023/09/14 07:13:59;;;;;;;;;;;;;;;21.98;60.17;97060.71;594415;235;62743;-65
2023/09/14 07:16:26;;;;;;;;;;;;;;;21.98;60.54;97061.51;594848;238;64584;-68
2023/09/14 07:18:54;;;;;;;;;;;;;;;21.98;60.46;97058.84;595765;238;64538;-65
2023/09/14 07:21:21;;;;;;;;;;;;;;;21.98;63.22;97063.39;595187;238;65127;-65
2023/09/14 07:23:49;;;;;;;;;;;;;;;21.98;60.39;97055.36;595860;238;66734;-65
2023/09/14 07:26:16;;;;;;;;;;;;;;;21.98;60.39;97061.51;595791;238;66686;-65
2023/09/14 07:28:44;;;;;;;;;;;;;;;21.99;60.40;97056.95;595877;238;65057;-65
2023/09/14 07:31:11;;;;;;;;;;;;;;;21.99;60.40;97062.30;596531;237;67436;-65
2023/09/14 07:33:40;;;;;;;;;;;;;;;21.98;60.75;97058.04;598465;237;64415;-65
2023/09/14 07:36:07;;;;;;;;;;;;;;;21.98;60.63;97058.04;598508;237;65161;-65
2023/09/14 07:38:35;;;;;;;;;;;;;;;21.98;60.84;97060.71;598495;237;67023;-65
2023/09/14 07:41:03;;;;;;;;;;;;;;;21.98;60.75;97060.71;598474;237;64293;-65
2023/09/14 07:43:30;;;;;;;;;;;;;;;21.98;60.89;97060.71;598495;237;64953;-64
2023/09/14 07:45:58;;;;;;;;;;;;;;;21.98;61.00;97061.51;598505;237;66689;-65
2023/09/14 07:48:26;;;;;;;;;;;;;;;21.98;60.85;97052.69;598517;237;66997;-64
2023/09/14 07:50:53;;;;;;;;;;;;;;;21.98;60.99;97058.04;598512;237;65188;-67
2023/09/14 07:53:21;;;;;;;;;;;;;;;21.97;61.03;97051.89;598437;237;66538;-66
2023/09/14 07:55:52;;;;;;;;;;;;;;;21.97;60.85;97059.13;598590;237;66526;-66
2023/09/14 07:58:17;;;;;;;;;;;;;;;21.98;61.05;97052.69;598473;235;64892;-66
2023/09/14 08:00:45;;;;;;;;;;;;;;;21.97;61.24;97043.86;598497;237;66557;-66
2023/09/14 08:03:14;;;;;;;;;;;;;;;21.98;60.90;97053.48;598511;237;66515;-65
2023/09/14 08:05:42;;;;;;;;;;;;;;;21.99;61.00;97048.92;598505;237;65642;-66
2023/09/14 08:08:10;;;;;;;;;;;;;;;21.98;61.13;97045.45;598441;237;66529;-66
2023/09/14 08:10:37;;;;;;;;;;;;;;;21.97;61.10;97043.86;598544;237;66607;-66
2023/09/14 08:13:05;;;;;;;;;;;;;;;21.99;61.06;97043.57;598525;237;62846;-65
2023/09/14 08:15:33;;;;;;;;;;;;;;;21.98;61.45;97037.42;598430;237;66778;-66
2023/09/14 08:18:01;;;;;;;;;;;;;;;21.99;61.43;97046.25;598479;237;66874;-66
2023/09/14 08:20:28;;;;;;;;;;;;;;;22.01;61.04;97036.08;598427;237;64721;-67
2023/09/14 08:22:56;;;;;;;;;;;;;;;22.00;61.29;97032.61;598420;237;64509;-67
2023/09/14 08:25:23;;;;;;;;;;;;;;;22.00;61.37;97042.52;598440;237;66673;-66
2023/09/14 08:27:51;;;;;;;;;;;;;;;22.00;61.43;97031.81;598480;237;62681;-66
2023/09/14 08:30:18;;;;;;;;;;;;;;;22.00;61.45;97037.95;598425;237;64666;-66
2023/09/14 08:32:46;;;;;;;;;;;;;;;22.00;61.54;97037.95;598484;237;64403;-66
2023/09/14 08:35:15;;;;;;;;;;;;;;;22.00;61.65;97037.16;598491;237;65036;-67
2023/09/14 08:37:43;;;;;;;;;;;;;;;21.99;61.71;97033.69;597080;237;66936;-66
2023/09/14 08:40:12;;;;;;;;;;;;;;;21.99;61.69;97036.37;598491;237;64795;-67
2023/09/14 08:42:41;;;;;;;;;;;;;;;22.00;61.63;97029.13;598507;237;63122;-68
2023/09/14 08:45:11;;;;;;;;;;;;;;;22.00;61.69;97032.61;598473;237;64613;-69
2023/09/14 08:47:41;;;;;;;;;;;;;;;22.00;61.64;97029.93;598470;237;68410;-67
2023/09/14 08:50:13;;;;;;;;;;;;;;;22.01;61.73;97033.40;598460;237;65081;-68
2023/09/14 08:52:41;;;;;;;;;;;;;;;22.01;61.75;97028.05;598364;235;66804;-69
2023/09/14 08:55:10;;;;;;;;;;;;;;;22.01;61.76;97028.05;598484;237;64659;-68
2023/09/14 08:57:39;;;;;;;;;;;;;;;22.02;61.75;97035.02;598416;237;64888;-69
2023/09/14 09:00:17;;;;;;;;;;;;;;;22.00;61.76;97027.25;598460;237;66866;-68
2023/09/14 09:02:38;;;;;;;;;;;;;;;22.01;61.83;97028.05;597757;237;67552;-68
2023/09/14 09:05:05;;;;;;;;;;;;;;;22.01;61.80;97025.38;598459;237;64939;-68
2023/09/14 09:07:33;;;;;;;;;;;;;;;22.01;61.87;97028.84;598351;237;66954;-68
2023/09/14 09:10:02;;;;;;;;;;;;;;;22.01;61.87;97025.38;597735;237;66916;-68
2023/09/14 09:12:29;;;;;;;;;;;;;;;22.01;61.88;97014.67;597899;237;64925;-68
2023/09/14 09:14:57;;;;;;;;;;;;;;;22.01;61.94;97020.81;597941;237;64565;-68
2023/09/14 09:17:25;;;;;;;;;;;;;;;22.01;61.90;97018.14;598435;237;67297;-69
2023/09/14 09:19:53;;;;;;;;;;;;;;;22.02;61.89;97005.58;598450;237;62602;-69
2023/09/14 09:22:21;;;;;;;;;;;;;;;22.02;61.89;97014.41;598484;237;66985;-70
2023/09/14 09:24:49;;;;;;;;;;;;;;;22.02;61.91;97006.37;598530;237;66458;-68
2023/09/14 09:27:26;;;;;;;;;;;;;;;22.02;61.87;97002.91;598453;237;64879;-69
2023/09/14 09:30:00;;;;;;;;;;;;;;;22.02;61.89;97001.02;598516;237;66829;-73
2023/09/14 09:32:27;;;;;;;;;;;;;;;22.02;61.83;96998.34;596343;237;65070;-72
2023/09/14 09:34:55;;;;;;;;;;;;;;;22.02;61.60;97003.70;595778;238;63276;-64
2023/09/14 09:37:24;;;;;;;;;;;;;;;22.02;61.78;96989.53;595839;238;66871;-65
2023/09/14 09:39:52;;;;;;;;;;;;;;;22.02;62.08;96998.34;595790;238;66827;-64
2023/09/14 09:42:20;;;;;;;;;;;;;;;22.04;61.92;96998.05;595871;238;65750;-64
2023/09/14 09:44:48;;;;;;;;;;;;;;;22.07;60.83;96989.47;595840;238;64628;-65
2023/09/14 09:47:15;;;;;;;;;;;;;;;22.07;61.65;96984.94;595743;238;64595;-65
2023/09/14 09:49:43;;;;;;;;;;;;;;;22.07;61.74;96984.94;595809;238;63684;-65
2023/09/14 09:52:12;;;;;;;;;;;;;;;22.09;61.74;96987.31;595772;238;64009;-65
2023/09/14 09:54:40;;;;;;;;;;;;;;;22.11;61.93;96979.81;595779;237;66656;-64
2023/09/14 09:57:08;;;;;;;;;;;;;;;22.14;62.45;96984.61;595234;238;65046;-63
2023/09/14 09:59:36;;;;;;;;;;;;;;;22.15;63.54;96981.67;594029;238;64977;-66
2023/09/14 10:02:06;;;;;;;;;;;;;;;22.19;64.79;96986.48;593347;238;66720;-64
2023/09/14 10:04:33;;;;;;;;;;;;;;;22.19;62.90;96989.96;594330;237;62793;-65
2023/09/14 10:07:04;;;;;;;;;;;;;;;22.20;63.97;96990.75;594658;238;67176;-65
2023/09/14 10:09:35;;;;;;;;;;;;;;;22.22;64.87;96985.92;594121;237;66718;-65
2023/09/14 10:12:03;;;;;;;;;;;;;;;22.22;64.77;96986.72;594510;238;62965;-65
2023/09/14 10:14:33;;;;;;;;;;;;;;;22.24;64.82;96986.45;594205;238;67008;-65
2023/09/14 10:17:03;;;;;;;;;;;;;;;22.24;64.63;96981.10;595061;238;66666;-64
2023/09/14 10:19:31;;;;;;;;;;;;;;;22.24;64.45;96984.57;595392;238;62505;-65
2023/09/14 10:21:59;;;;;;;;;;;;;;;22.27;63.98;96988.57;593908;239;66759;-66
2023/09/14 10:24:27;;;;;;;;;;;;;;;22.27;63.98;96978.66;594083;238;64395;-66
2023/09/14 10:26:55;;;;;;;;;;;;;;;22.29;63.66;96973.83;594327;236;66243;-65
2023/09/14 10:29:24;;;;;;;;;;;;;;;22.29;63.90;96981.86;594297;238;66783;-66
2023/09/14 10:31:53;;;;;;;;;;;;;;;22.30;63.67;96978.09;595847;237;66648;-64
2023/09/14 10:34:20;;;;;;;;;;;;;;;22.31;63.72;96979.67;597749;237;62762;-64
2023/09/14 10:36:49;;;;;;;;;;;;;;;22.32;63.44;96975.94;597691;237;66864;-65
2023/09/14 10:39:22;;;;;;;;;;;;;;;22.32;63.45;96975.94;597685;237;66382;-65
2023/09/14 10:41:47;;;;;;;;;;;;;;;22.32;62.78;96964.44;597616;237;65106;-65
2023/09/14 10:44:15;;;;;;;;;;;;;;;22.33;62.88;96969.50;597130;237;66976;-64
2023/09/14 10:46:44;;;;;;;;;;;;;;;22.34;62.93;96963.08;597311;235;67780;-64
2023/09/14 10:49:11;;;;;;;;;;;;;;;22.35;62.86;96969.23;597267;237;62995;-61
2023/09/14 10:51:41;;;;;;;;;;;;;;;22.33;61.25;96963.34;597645;237;64422;-61
2023/09/14 10:54:09;;;;;;;;;;;;;;;22.34;61.88;96962.26;597694;237;64663;-64
2023/09/14 10:56:36;;;;;;;;;;;;;;;22.35;62.57;96974.59;597724;237;63002;-64
2023/09/14 10:59:08;;;;;;;;;;;;;;;22.35;61.61;96961.98;597669;237;64532;-64
2023/09/14 11:01:50;;;;;;;;;;;;;;;22.36;62.57;96960.90;597736;237;64795;-64
2023/09/14 11:04:19;;;;;;;;;;;;;;;22.37;63.26;96965.20;597735;236;63055;-65
2023/09/14 11:06:51;;;;;;;;;;;;;;;22.38;63.10;96966.78;597348;236;66763;-65
2023/09/14 11:09:19;;;;;;;;;;;;;;;22.38;63.38;96964.10;597517;236;66651;-65
2023/09/14 11:11:50;;;;;;;;;;;;;;;22.38;63.23;96958.75;596572;235;65099;-65
2023/09/14 11:14:18;;;;;;;;;;;;;;;22.38;63.22;96958.75;596643;237;67253;-65
2023/09/14 11:16:47;;;;;;;;;;;;;;;22.38;63.00;96958.75;597698;237;66821;-65
2023/09/14 11:19:32;;;;;;;;;;;;;;;22.38;62.66;96958.75;597641;237;64941;-64
2023/09/14 11:22:03;;;;;;;;;;;;;;;22.39;62.57;96960.33;597721;237;64413;-65
2023/09/14 11:24:35;;;;;;;;;;;;;;;22.39;62.67;96946.16;597706;237;66770;-65
2023/09/14 11:27:02;;;;;;;;;;;;;;;22.41;62.52;96951.24;597537;237;65024;-64
2023/09/14 11:29:32;;;;;;;;;;;;;;;22.40;61.91;96945.09;597631;235;66897;-65
2023/09/14 11:32:01;;;;;;;;;;;;;;;22.41;61.42;96948.56;597388;236;66968;-65
2023/09/14 11:34:32;;;;;;;;;;;;;;;22.41;61.72;96935.97;598462;237;65310;-65
2023/09/14 11:37:00;;;;;;;;;;;;;;;22.42;62.22;96937.55;598496;237;64663;-64
2023/09/14 11:39:29;;;;;;;;;;;;;;;22.42;62.59;96937.55;598510;237;66707;-65
2023/09/14 11:41:59;;;;;;;;;;;;;;;22.43;62.25;96938.38;598450;237;65020;-65
2023/09/14 11:44:29;;;;;;;;;;;;;;;22.43;62.13;96938.38;598531;235;70990;-64
2023/09/14 11:46:57;;;;;;;;;;;;;;;22.43;62.06;96935.70;598414;237;66681;-65
2023/09/14 11:49:27;;;;;;;;;;;;;;;22.44;62.07;96934.61;598132;237;62799;-65
2023/09/14 11:51:54;;;;;;;;;;;;;;;22.44;62.07;96934.61;592327;239;66883;-64
2023/09/14 11:54:22;;;;;;;;;;;;;;;22.44;62.11;96935.41;594830;236;65333;-65
2023/09/14 11:56:50;;;;;;;;;;;;;;;22.44;62.25;96922.02;600243;236;63303;-65
2023/09/14 11:59:29;;;;;;;;;;;;;;;22.45;62.10;96928.16;600282;236;64307;-66
2023/09/14 12:01:57;;;;;;;;;;;;;;;22.46;62.09;96927.09;600266;236;64821;-65
2023/09/14 12:04:29;;;;;;;;;;;;;;;22.45;62.00;96925.48;600045;236;64939;-65
2023/09/14 12:07:03;;;;;;;;;;;;;;;22.46;61.83;96929.78;599359;236;66702;-65
2023/09/14 12:09:33;;;;;;;;;;;;;;;22.45;61.59;96925.48;599157;236;66220;-65
2023/09/14 12:12:01;;;;;;;;;;;;;;;22.44;58.50;96929.25;592048;237;66110;-65
2023/09/14 12:14:39;;;;;;;;;;;;;;;22.42;57.18;96920.70;592545;236;66795;-64
2023/09/14 12:17:20;;;;;;;;;;;;;;;22.43;57.23;96928.45;590322;240;66648;-65
2023/09/14 12:19:49;;;;;;;;;;;;;;;22.45;59.23;96928.16;593031;237;65832;-64
2023/09/14 12:22:18;;;;;;;;;;;;;;;22.46;59.60;96925.22;599130;234;67126;-64
2023/09/14 12:24:46;;;;;;;;;;;;;;;22.46;58.01;96927.09;599841;236;64544;-65
2023/09/14 12:27:14;;;;;;;;;;;;;;;22.47;58.81;96928.69;600036;236;62680;-64
2023/09/14 12:29:43;;;;;;;;;;;;;;;22.47;59.21;96926.80;600169;236;67350;-63
2023/09/14 12:32:11;;;;;;;;;;;;;;;22.47;58.70;96924.13;597543;236;66817;-65
2023/09/14 12:34:39;;;;;;;;;;;;;;;22.50;60.39;96922.76;596364;238;65187;-63
2023/09/14 12:37:09;;;;;;;;;;;;;;;22.49;59.45;96921.17;596429;238;66583;-64
2023/09/14 12:39:38;;;;;;;;;;;;;;;22.49;58.03;96926.53;594855;238;65575;-64
2023/09/14 12:42:06;;;;;;;;;;;;;;;22.50;58.77;96928.91;594519;238;65244;-64
2023/09/14 12:44:34;;;;;;;;;;;;;;;22.50;58.54;96920.88;594308;235;64636;-64
2023/09/14 12:47:01;;;;;;;;;;;;;;;22.52;58.46;96917.93;595217;238;66718;-64
2023/09/14 12:49:29;;;;;;;;;;;;;;;22.51;58.40;96919.81;595673;238;64935;-64
2023/09/14 12:51:56;;;;;;;;;;;;;;;22.51;57.71;96913.66;594586;238;66867;-64
2023/09/14 12:54:28;;;;;;;;;;;;;;;22.51;57.24;96910.98;595435;238;66776;-65